createdAt,value
2018-09-13T17:40:37.862Z,6.10
2018-09-13T17:43:09.361Z,5.83
2018-09-13T17:45:41.257Z,5.17
2018-09-13T17:48:13.658Z,6.67
2018-09-13T17:50:45.498Z,13.70
2018-09-13T17:53:18.350Z,11.30
2018-09-13T17:55:50.471Z,8.37
2018-09-13T17:58:22.266Z,8.27
2018-09-13T18:00:54.126Z,8.80
2018-09-13T18:03:25.534Z,9.23
2018-09-13T18:05:57.379Z,9.27
2018-09-13T18:08:28.819Z,9.37
2018-09-13T18:11:00.924Z,8.23
2018-09-13T18:13:33.011Z,8.03
2018-09-13T18:16:05.483Z,8.70
2018-09-13T18:18:37.637Z,6.00
2018-09-13T18:21:09.126Z,4.67
2018-09-13T18:23:41.126Z,4.63
2018-09-13T18:26:13.242Z,3.03
2018-09-13T18:28:45.624Z,2.90
2018-09-13T18:31:17.791Z,2.50
2018-09-13T18:33:50.851Z,2.50
2018-09-13T18:36:23.012Z,2.30
2018-09-13T18:38:54.847Z,3.33
2018-09-13T18:41:28.773Z,4.30
2018-09-13T18:43:59.241Z,5.33
2018-09-13T18:46:31.069Z,9.37
2018-09-13T18:49:03.016Z,18.27
2018-09-13T18:51:34.936Z,26.30
2018-09-13T18:54:07.270Z,38.03
2018-09-13T18:56:39.094Z,49.10
2018-09-13T18:59:10.538Z,58.60
2018-09-13T19:01:42.094Z,70.07
2018-09-13T19:04:14.060Z,72.83
2018-09-13T19:06:46.268Z,75.77
2018-09-13T19:09:18.489Z,69.63
2018-09-13T19:11:51.155Z,65.70
2018-09-13T19:14:23.397Z,65.97
2018-09-13T19:16:56.269Z,61.93
2018-09-13T19:19:28.049Z,60.80
2018-09-13T19:22:00.188Z,56.97
2018-09-13T19:24:32.717Z,53.67
2018-09-13T19:27:04.390Z,49.87
2018-09-13T19:29:36.973Z,45.70
2018-09-13T19:32:09.048Z,43.93
2018-09-13T19:34:40.916Z,47.13
2018-09-13T19:37:13.276Z,55.47
2018-09-13T19:39:45.170Z,69.67
2018-09-13T19:42:17.405Z,86.00
2018-09-13T19:44:49.491Z,104.67
2018-09-13T19:47:22.389Z,99.17
2018-09-13T19:51:57.583Z,92.90
2018-09-13T19:54:29.408Z,87.50
2018-09-13T19:57:02.230Z,83.43
2018-09-13T19:59:34.110Z,78.93
2018-09-13T20:02:05.701Z,75.13
2018-09-13T20:04:37.284Z,76.00
2018-09-13T20:07:11.292Z,75.07
2018-09-13T20:09:40.937Z,74.07
2018-09-13T20:12:14.081Z,73.93
2018-09-13T20:14:46.291Z,65.63
2018-09-13T20:17:18.085Z,63.03
2018-09-13T20:19:50.358Z,62.03
2018-09-13T20:22:22.548Z,63.70
2018-09-13T20:24:57.988Z,70.27
2018-09-13T20:27:35.617Z,76.10
2018-09-13T20:30:08.533Z,76.20
